Time;durP1;ratioP1;P1;durP2;ratioP2;P2;SDS_P1;SDS_P2;PMS_P1;PMS_P2;Temp;Humidity;BMP_temperature;BMP_pressure;BME280_temperature;BME280_humidity;BME280_pressure;Samples;Min_cycle;Max_cycle;Signal;HPM_P1;HPM_P2
2022/02/13 00:01:44;;;;;;;9.40;5.90;;;1.50;99.90;;;;;;5076581;28;20571;-58
2022/02/13 00:04:11;;;;;;;8.77;6.17;;;1.40;99.90;;;;;;5076989;28;20468;-54
2022/02/13 00:06:44;;;;;;;8.30;6.40;;;1.40;99.90;;;;;;5077427;28;20492;-58
2022/02/13 00:09:11;;;;;;;9.10;6.30;;;1.40;99.90;;;;;;5077404;28;20782;-58
2022/02/13 00:11:38;;;;;;;13.43;6.80;;;1.30;99.90;;;;;;5076301;28;20541;-55
2022/02/13 00:14:10;;;;;;;9.17;5.57;;;1.40;99.90;;;;;;5076979;28;20554;-57
2022/02/13 00:16:37;;;;;;;10.37;5.63;;;1.50;99.90;;;;;;5077276;28;20465;-56
2022/02/13 00:19:08;;;;;;;9.00;6.10;;;1.40;99.90;;;;;;5076920;28;21085;-54
2022/02/13 00:21:38;;;;;;;10.67;5.87;;;1.30;99.90;;;;;;5070943;28;20616;-58
2022/02/13 00:24:06;;;;;;;9.30;5.77;;;1.30;99.90;;;;;;5064794;28;20916;-57
2022/02/13 00:26:35;;;;;;;13.97;6.07;;;1.30;99.90;;;;;;5077616;28;20468;-56
2022/02/13 00:29:03;;;;;;;10.23;6.20;;;1.30;99.90;;;;;;5077525;28;20468;-53
2022/02/13 00:31:30;;;;;;;8.47;5.87;;;1.20;99.90;;;;;;5076267;28;20470;-56
2022/02/13 00:34:00;;;;;;;9.87;5.53;;;1.20;99.90;;;;;;5075867;28;20530;-57
2022/02/13 00:36:31;;;;;;;10.57;6.60;;;1.20;99.90;;;;;;5076810;28;20467;-52
2022/02/13 00:39:03;;;;;;;10.13;6.63;;;1.20;99.90;;;;;;5076824;28;20513;-57
2022/02/13 00:41:33;;;;;;;8.83;6.10;;;1.20;99.90;;;;;;5077596;28;20471;-57
2022/02/13 00:44:03;;;;;;;9.90;7.63;;;1.20;99.90;;;;;;5076676;28;20443;-56
2022/02/13 00:46:30;;;;;;;8.10;5.87;;;1.30;99.90;;;;;;5076264;28;20519;-58
2022/02/13 00:49:00;;;;;;;12.20;6.47;;;1.30;99.90;;;;;;5076731;28;20550;-55
2022/02/13 00:51:34;;;;;;;11.87;6.57;;;1.30;99.90;;;;;;5077405;28;20551;-51
2022/02/13 00:54:02;;;;;;;7.10;5.80;;;1.30;99.90;;;;;;5076826;28;20496;-56
2022/02/13 00:56:32;;;;;;;7.00;5.70;;;1.20;99.90;;;;;;5076092;28;20464;-50
2022/02/13 00:58:59;;;;;;;9.10;6.20;;;1.20;99.90;;;;;;5077203;28;20593;-55
2022/02/13 01:01:26;;;;;;;9.30;6.50;;;1.20;99.90;;;;;;5076600;28;20472;-52
2022/02/13 01:03:54;;;;;;;9.80;6.40;;;1.20;99.90;;;;;;5076742;28;20871;-53
2022/02/13 01:06:21;;;;;;;9.77;5.80;;;1.20;99.90;;;;;;5076307;28;20464;-57
2022/02/13 01:08:52;;;;;;;9.00;6.17;;;1.20;99.90;;;;;;5076759;28;20517;-56
2022/02/13 01:11:19;;;;;;;8.67;6.37;;;1.30;99.90;;;;;;5076691;28;20959;-57
2022/02/13 01:13:48;;;;;;;12.30;5.67;;;1.10;99.90;;;;;;5079929;28;20513;-58
2022/02/13 01:16:15;;;;;;;8.43;6.40;;;1.10;99.90;;;;;;5079747;28;20807;-58
2022/02/13 01:18:45;;;;;;;12.20;6.23;;;1.10;99.90;;;;;;5080368;28;20439;-58
2022/02/13 01:21:16;;;;;;;9.47;7.07;;;1.20;99.90;;;;;;5080061;28;20450;-57
2022/02/13 01:23:46;;;;;;;14.47;8.20;;;1.20;99.90;;;;;;5080183;28;20730;-57
2022/02/13 01:26:19;;;;;;;8.33;6.50;;;1.10;99.90;;;;;;5079312;28;20471;-56
2022/02/13 01:28:47;;;;;;;9.17;5.67;;;1.10;99.90;;;;;;5080203;28;20465;-58
2022/02/13 01:31:14;;;;;;;12.00;6.53;;;1.20;99.90;;;;;;5079898;28;20492;-56
2022/02/13 01:33:42;;;;;;;16.47;6.67;;;1.10;99.90;;;;;;5079503;28;20976;-57
2022/02/13 01:36:09;;;;;;;10.57;6.90;;;1.10;99.90;;;;;;5087459;28;20464;-58
2022/02/13 01:38:39;;;;;;;12.77;6.77;;;1.00;99.90;;;;;;5078878;28;20464;-54
2022/02/13 01:41:09;;;;;;;9.57;7.17;;;1.10;99.90;;;;;;5079837;28;20459;-57
2022/02/13 01:43:40;;;;;;;11.53;6.67;;;1.10;99.90;;;;;;5079928;28;20461;-54
2022/02/13 01:46:09;;;;;;;7.37;6.03;;;1.10;99.90;;;;;;5079700;28;20448;-56
2022/02/13 01:48:37;;;;;;;9.13;6.37;;;1.10;99.90;;;;;;5078993;28;20465;-52
2022/02/13 01:51:05;;;;;;;9.53;5.90;;;1.00;99.90;;;;;;5079082;28;20470;-55
2022/02/13 01:53:32;;;;;;;11.07;6.10;;;0.90;99.90;;;;;;5079363;28;20488;-54
2022/02/13 01:56:01;;;;;;;11.40;6.50;;;0.80;99.90;;;;;;5079398;28;20499;-57
2022/02/13 01:58:28;;;;;;;9.53;6.30;;;0.80;99.90;;;;;;5078579;28;20610;-52
2022/02/13 02:01:00;;;;;;;8.93;6.27;;;0.70;99.90;;;;;;5079828;28;20928;-52
2022/02/13 02:03:27;;;;;;;7.37;5.90;;;0.70;99.90;;;;;;5079281;28;20655;-55
2022/02/13 02:05:55;;;;;;;9.10;6.03;;;0.70;99.90;;;;;;5079175;28;20443;-53
2022/02/13 02:08:22;;;;;;;8.70;5.90;;;0.70;99.90;;;;;;5079001;28;20472;-55
2022/02/13 02:10:50;;;;;;;10.70;6.43;;;0.80;99.90;;;;;;5079467;28;20472;-56
2022/02/13 02:13:17;;;;;;;12.97;6.23;;;0.80;99.90;;;;;;5079456;28;20547;-56
2022/02/13 02:15:44;;;;;;;7.63;5.97;;;0.80;99.90;;;;;;5079411;28;20898;-51
2022/02/13 02:18:13;;;;;;;9.63;5.27;;;0.90;99.90;;;;;;5079399;28;20526;-57
2022/02/13 02:20:40;;;;;;;12.93;6.10;;;0.90;99.90;;;;;;5078452;28;20468;-57
2022/02/13 02:23:09;;;;;;;9.27;6.10;;;0.90;99.90;;;;;;5078291;28;20457;-56
2022/02/13 02:25:36;;;;;;;9.07;6.53;;;0.90;99.90;;;;;;5078994;28;20483;-57
2022/02/13 02:28:03;;;;;;;9.03;5.80;;;0.90;99.90;;;;;;5078797;28;20472;-57
2022/02/13 02:30:34;;;;;;;11.20;6.03;;;0.90;99.90;;;;;;5078429;28;20900;-57
2022/02/13 02:33:01;;;;;;;10.30;6.37;;;0.90;99.90;;;;;;5079252;28;20492;-56
2022/02/13 02:35:31;;;;;;;9.40;5.73;;;0.80;99.90;;;;;;5078530;28;20453;-56
2022/02/13 02:37:58;;;;;;;12.87;6.37;;;0.80;99.90;;;;;;5078871;28;20476;-56
2022/02/13 02:40:27;;;;;;;13.70;6.63;;;0.80;99.90;;;;;;5078521;28;20488;-57
2022/02/13 02:42:54;;;;;;;9.83;5.90;;;0.80;99.90;;;;;;5078773;28;20467;-54
2022/02/13 02:45:21;;;;;;;10.30;6.70;;;0.70;99.90;;;;;;5078898;28;20536;-57
2022/02/13 02:47:48;;;;;;;7.30;5.40;;;0.70;99.90;;;;;;5078608;28;20729;-57
2022/02/13 02:50:19;;;;;;;7.63;6.10;;;0.70;99.90;;;;;;5077814;28;20526;-56
2022/02/13 02:52:46;;;;;;;8.17;6.70;;;0.60;99.90;;;;;;5078186;28;20475;-57
2022/02/13 02:55:13;;;;;;;11.57;7.17;;;0.50;99.90;;;;;;5078365;28;20488;-55
2022/02/13 02:57:45;;;;;;;12.03;5.77;;;0.40;99.90;;;;;;5078398;28;20466;-51
2022/02/13 03:00:13;;;;;;;9.70;6.80;;;0.50;99.90;;;;;;5078081;28;20474;-54
2022/02/13 03:02:41;;;;;;;8.50;6.37;;;0.50;99.90;;;;;;5077901;28;20773;-56
2022/02/13 03:05:08;;;;;;;11.83;6.20;;;0.50;99.90;;;;;;5078331;28;20715;-56
2022/02/13 03:07:36;;;;;;;7.00;5.90;;;0.50;99.90;;;;;;5077791;28;20483;-52
2022/02/13 03:10:03;;;;;;;13.47;6.23;;;0.40;99.90;;;;;;5077694;28;20471;-56
2022/02/13 03:12:32;;;;;;;7.60;5.60;;;0.40;99.90;;;;;;5077885;28;20804;-55
2022/02/13 03:15:00;;;;;;;14.30;6.20;;;0.50;99.90;;;;;;5078082;28;20496;-57
2022/02/13 03:17:27;;;;;;;9.73;5.80;;;0.40;99.90;;;;;;5077712;28;20831;-54
2022/02/13 03:19:54;;;;;;;6.87;5.43;;;0.40;99.90;;;;;;5078106;28;20525;-55
2022/02/13 03:22:21;;;;;;;9.33;6.67;;;0.40;99.90;;;;;;5077598;28;20520;-57
2022/02/13 03:24:48;;;;;;;11.93;6.00;;;0.30;99.90;;;;;;5078099;28;20775;-57
2022/02/13 03:27:15;;;;;;;7.17;6.00;;;0.30;99.90;;;;;;5077707;28;20465;-53
2022/02/13 03:29:43;;;;;;;9.40;5.97;;;0.20;99.90;;;;;;5078150;28;20449;-57
2022/02/13 03:32:11;;;;;;;9.87;6.23;;;0.30;99.90;;;;;;5077842;28;20487;-56
2022/02/13 03:34:38;;;;;;;8.53;5.70;;;0.30;99.90;;;;;;5077485;28;21010;-57
2022/02/13 03:37:05;;;;;;;10.07;5.70;;;0.30;99.90;;;;;;5077269;28;20774;-55
2022/02/13 03:39:33;;;;;;;8.97;6.77;;;0.40;99.90;;;;;;5077963;28;20473;-57
2022/02/13 03:42:00;;;;;;;8.80;6.00;;;0.40;99.90;;;;;;5077923;28;20442;-57
2022/02/13 03:44:27;;;;;;;8.87;5.50;;;0.40;99.90;;;;;;5076979;28;20467;-57
2022/02/13 03:46:57;;;;;;;8.17;5.50;;;0.30;99.90;;;;;;5077555;28;20463;-56
2022/02/13 03:49:27;;;;;;;13.87;5.90;;;0.30;99.90;;;;;;5078010;28;20501;-57
2022/02/13 03:52:00;;;;;;;8.93;6.17;;;0.20;99.90;;;;;;5077474;28;20472;-49
2022/02/13 03:54:27;;;;;;;11.37;5.97;;;0.20;99.90;;;;;;5077240;28;20739;-54
2022/02/13 03:57:00;;;;;;;9.20;6.60;;;0.20;99.90;;;;;;5077201;28;20486;-51
2022/02/13 03:59:27;;;;;;;9.70;6.43;;;0.20;99.90;;;;;;5077572;28;20799;-54
2022/02/13 04:01:54;;;;;;;8.70;5.60;;;0.20;99.90;;;;;;5077394;28;20462;-56
2022/02/13 04:04:21;;;;;;;7.93;5.57;;;0.30;99.90;;;;;;5076885;28;20463;-57
2022/02/13 04:06:52;;;;;;;9.30;6.60;;;0.40;99.90;;;;;;5077287;28;20470;-57
2022/02/13 04:09:19;;;;;;;6.83;5.80;;;0.40;99.90;;;;;;5077298;28;20814;-57
2022/02/13 04:11:48;;;;;;;6.63;5.40;;;0.30;99.90;;;;;;5076937;28;20468;-55
2022/02/13 04:14:16;;;;;;;6.90;5.47;;;0.30;99.90;;;;;;5076650;28;20490;-57
2022/02/13 04:16:43;;;;;;;6.57;4.87;;;0.40;99.90;;;;;;5077769;28;20783;-57
2022/02/13 04:19:10;;;;;;;7.13;5.23;;;0.40;99.90;;;;;;5077287;28;20464;-55
2022/02/13 04:21:39;;;;;;;6.20;5.60;;;0.30;99.90;;;;;;5077323;28;20467;-57
2022/02/13 04:24:08;;;;;;;9.80;5.70;;;0.40;99.90;;;;;;5077377;28;20491;-55
2022/02/13 04:26:35;;;;;;;10.60;5.70;;;0.30;99.90;;;;;;5076453;28;20470;-57
2022/02/13 04:29:02;;;;;;;7.20;5.40;;;0.30;99.90;;;;;;5077263;28;20469;-57
2022/02/13 04:31:29;;;;;;;8.60;6.60;;;0.20;99.90;;;;;;5077312;28;20507;-53
2022/02/13 04:33:56;;;;;;;8.27;5.60;;;0.20;99.90;;;;;;5076933;28;20496;-54
2022/02/13 04:36:24;;;;;;;10.27;5.93;;;0.10;99.90;;;;;;5087938;28;20773;-57
2022/02/13 04:38:51;;;;;;;7.40;5.97;;;0.10;99.90;;;;;;5097372;28;20468;-56
2022/02/13 04:41:21;;;;;;;9.07;6.53;;;0.10;99.90;;;;;;5078565;28;20462;-56
2022/02/13 04:43:50;;;;;;;10.60;6.60;;;0.10;99.90;;;;;;5077064;28;20493;-56
2022/02/13 04:46:20;;;;;;;8.70;6.17;;;0.10;99.90;;;;;;5075958;28;20827;-55
2022/02/13 04:48:50;;;;;;;8.10;5.53;;;0.10;99.90;;;;;;5081034;28;20490;-56
2022/02/13 04:51:17;;;;;;;6.17;5.13;;;0.10;99.90;;;;;;5080735;28;20461;-56
2022/02/13 04:53:44;;;;;;;7.20;5.47;;;0.10;99.90;;;;;;5080456;28;20496;-56
2022/02/13 04:56:11;;;;;;;8.70;5.37;;;0.10;99.90;;;;;;5080041;28;20469;-56
2022/02/13 04:58:40;;;;;;;8.80;5.67;;;0.20;99.90;;;;;;5040849;28;20738;-51
2022/02/13 05:01:07;;;;;;;8.37;5.70;;;0.20;99.90;;;;;;5040639;28;20521;-54
2022/02/13 05:03:34;;;;;;;10.00;5.87;;;0.20;99.90;;;;;;5040657;28;20525;-54
2022/02/13 05:06:01;;;;;;;9.80;6.30;;;0.20;99.90;;;;;;5040184;28;20461;-57
2022/02/13 05:08:28;;;;;;;7.50;5.33;;;0.30;99.90;;;;;;5040514;28;20893;-57
2022/02/13 05:10:55;;;;;;;7.93;5.97;;;0.20;99.90;;;;;;5040681;28;20470;-57
2022/02/13 05:13:23;;;;;;;8.73;6.00;;;0.30;99.90;;;;;;5040572;28;20465;-57
2022/02/13 05:15:51;;;;;;;7.40;5.40;;;0.20;99.90;;;;;;5040342;28;20498;-57
2022/02/13 05:18:18;;;;;;;9.60;5.40;;;0.30;99.90;;;;;;5039896;28;20469;-53
2022/02/13 05:20:45;;;;;;;7.77;5.80;;;0.30;99.90;;;;;;5040580;28;20463;-57
2022/02/13 05:23:12;;;;;;;7.20;5.27;;;0.30;99.90;;;;;;5040643;28;20464;-56
2022/02/13 05:25:40;;;;;;;10.40;5.83;;;0.30;99.90;;;;;;5040197;28;20459;-55
2022/02/13 05:28:09;;;;;;;9.07;5.90;;;0.30;99.90;;;;;;5039029;28;20456;-56
2022/02/13 05:30:36;;;;;;;6.50;5.07;;;0.30;99.90;;;;;;5040066;28;20438;-57
2022/02/13 05:33:05;;;;;;;9.83;5.10;;;0.30;99.90;;;;;;5039896;28;20459;-56
2022/02/13 05:35:32;;;;;;;8.47;5.97;;;0.40;99.90;;;;;;5040480;28;20947;-57
2022/02/13 05:37:59;;;;;;;12.00;6.37;;;0.30;99.90;;;;;;5039565;28;20878;-55
2022/02/13 05:40:26;;;;;;;7.77;5.93;;;0.30;99.90;;;;;;5040331;28;20583;-52
2022/02/13 05:42:53;;;;;;;8.17;5.70;;;0.30;99.90;;;;;;5040087;28;20439;-57
2022/02/13 05:45:20;;;;;;;12.57;8.40;;;0.40;99.90;;;;;;5040190;28;20442;-57
2022/02/13 05:47:48;;;;;;;12.13;8.37;;;0.30;99.90;;;;;;5039191;28;20459;-56
2022/02/13 05:50:16;;;;;;;15.50;8.10;;;0.30;99.90;;;;;;5020244;28;20468;-54
2022/02/13 05:52:43;;;;;;;19.50;10.70;;;0.40;99.90;;;;;;5025318;28;20474;-55
2022/02/13 05:55:10;;;;;;;36.70;16.77;;;0.30;99.90;;;;;;5040082;28;21016;-57
2022/02/13 05:57:42;;;;;;;26.47;13.47;;;0.30;99.90;;;;;;5062885;28;20494;-54
2022/02/13 06:00:11;;;;;;;15.70;8.43;;;0.40;99.90;;;;;;5078114;28;20557;-56
2022/02/13 06:02:39;;;;;;;10.60;7.67;;;0.40;99.90;;;;;;5079530;28;20502;-57
2022/02/13 06:05:07;;;;;;;11.57;7.33;;;0.40;99.90;;;;;;5079819;28;20504;-56
2022/02/13 06:07:38;;;;;;;14.87;8.93;;;0.30;99.90;;;;;;5079345;28;20926;-57
2022/02/13 06:10:07;;;;;;;11.20;7.20;;;0.40;99.90;;;;;;5079165;28;20470;-55
2022/02/13 06:12:34;;;;;;;11.30;8.57;;;0.50;99.90;;;;;;5079690;28;20466;-57
2022/02/13 06:15:02;;;;;;;9.50;7.40;;;0.40;99.90;;;;;;5079691;28;20495;-56
2022/02/13 06:17:29;;;;;;;8.77;6.40;;;0.40;99.90;;;;;;5079764;28;20469;-57
2022/02/13 06:19:56;;;;;;;9.33;7.23;;;0.50;99.90;;;;;;5079454;28;20436;-54
2022/02/13 06:22:23;;;;;;;6.57;5.87;;;0.50;99.90;;;;;;5078504;28;20958;-57
2022/02/13 06:24:52;;;;;;;9.67;6.27;;;0.50;99.90;;;;;;5079167;28;20468;-57
2022/02/13 06:27:19;;;;;;;13.10;5.90;;;0.50;99.90;;;;;;5079417;28;20932;-52
2022/02/13 06:29:49;;;;;;;8.90;6.10;;;0.40;99.90;;;;;;5079384;28;20809;-51
2022/02/13 06:32:16;;;;;;;10.40;7.63;;;0.40;99.90;;;;;;5079109;28;20507;-51
2022/02/13 06:34:43;;;;;;;8.03;6.07;;;0.40;99.90;;;;;;5078764;28;20490;-56
2022/02/13 06:37:11;;;;;;;11.10;6.40;;;0.40;99.90;;;;;;5078520;28;20475;-54
2022/02/13 06:39:38;;;;;;;8.93;7.30;;;0.40;99.90;;;;;;5078502;28;20462;-51
2022/02/13 06:42:10;;;;;;;9.87;7.00;;;0.40;99.90;;;;;;5079377;28;20463;-51
2022/02/13 06:44:37;;;;;;;9.93;7.30;;;0.40;99.90;;;;;;5078753;28;20462;-56
2022/02/13 06:47:04;;;;;;;13.67;9.10;;;0.40;99.90;;;;;;5078180;28;20516;-51
2022/02/13 06:49:31;;;;;;;13.27;6.53;;;0.40;99.90;;;;;;5078770;28;20499;-55
2022/02/13 06:51:58;;;;;;;11.67;8.37;;;0.40;99.90;;;;;;5077632;28;20467;-55
2022/02/13 06:54:25;;;;;;;10.63;6.70;;;0.50;99.90;;;;;;5073983;28;20485;-49
2022/02/13 06:56:52;;;;;;;7.07;5.50;;;0.40;99.90;;;;;;5073916;28;20854;-52
2022/02/13 06:59:22;;;;;;;7.20;5.90;;;0.50;99.90;;;;;;5075429;28;20463;-54
2022/02/13 07:01:49;;;;;;;9.30;7.30;;;0.50;99.90;;;;;;5073092;28;20478;-54
2022/02/13 07:04:16;;;;;;;8.77;6.23;;;0.50;99.90;;;;;;5076951;28;20445;-52
2022/02/13 07:06:43;;;;;;;8.97;7.33;;;0.50;99.90;;;;;;5074468;28;20446;-57
2022/02/13 07:09:10;;;;;;;7.27;5.63;;;0.60;99.90;;;;;;5073067;28;20502;-55
2022/02/13 07:11:37;;;;;;;8.33;6.47;;;0.60;99.90;;;;;;5075234;28;20479;-52
2022/02/13 07:14:05;;;;;;;10.93;6.43;;;0.60;99.90;;;;;;5077329;28;20731;-52
2022/02/13 07:16:33;;;;;;;8.77;6.47;;;0.60;99.90;;;;;;5077153;28;20460;-54
2022/02/13 07:19:02;;;;;;;10.90;5.87;;;0.70;99.90;;;;;;5077091;28;20511;-53
2022/02/13 07:21:34;;;;;;;10.07;7.30;;;0.70;99.90;;;;;;5078093;28;20480;-54
2022/02/13 07:24:01;;;;;;;10.13;6.90;;;0.80;99.90;;;;;;5077482;28;20871;-55
2022/02/13 07:26:31;;;;;;;6.97;5.53;;;0.90;99.90;;;;;;5077852;28;20462;-56
2022/02/13 07:29:00;;;;;;;7.47;5.80;;;0.90;99.90;;;;;;5076855;28;20468;-55
2022/02/13 07:31:35;;;;;;;10.40;6.80;;;1.00;99.90;;;;;;5077929;28;20522;-52
2022/02/13 07:34:02;;;;;;;9.20;6.60;;;1.00;99.90;;;;;;5069417;28;20757;-55
2022/02/13 07:36:30;;;;;;;9.73;6.33;;;1.10;99.90;;;;;;5077421;28;20502;-55
2022/02/13 07:38:57;;;;;;;10.93;6.57;;;1.10;99.90;;;;;;5076941;28;20519;-55
2022/02/13 07:41:25;;;;;;;6.97;5.77;;;1.20;99.90;;;;;;5078105;28;20576;-56
2022/02/13 07:43:54;;;;;;;8.87;6.00;;;1.20;99.90;;;;;;5076979;28;20478;-52
2022/02/13 07:46:21;;;;;;;8.80;5.90;;;1.20;99.90;;;;;;5077414;28;20464;-56
2022/02/13 07:48:52;;;;;;;7.60;6.20;;;1.30;99.90;;;;;;5073819;28;20524;-52
2022/02/13 07:51:19;;;;;;;11.73;5.40;;;1.40;99.90;;;;;;5076600;28;20469;-56
2022/02/13 07:53:49;;;;;;;8.20;6.43;;;1.50;99.90;;;;;;5076455;28;20520;-56
2022/02/13 07:56:17;;;;;;;7.47;5.93;;;1.50;99.90;;;;;;5077045;28;20598;-54
2022/02/13 07:58:44;;;;;;;9.60;5.27;;;1.60;99.90;;;;;;5076800;28;20473;-53
2022/02/13 08:01:13;;;;;;;8.03;5.83;;;1.70;99.90;;;;;;5077164;28;20467;-54
2022/02/13 08:03:40;;;;;;;5.77;5.13;;;1.80;99.90;;;;;;5075620;28;20462;-55
2022/02/13 08:06:09;;;;;;;6.77;4.80;;;1.90;99.90;;;;;;5076476;28;20457;-57
2022/02/13 08:08:45;;;;;;;7.00;5.87;;;2.00;99.90;;;;;;5077210;28;20474;-57
2022/02/13 08:11:20;;;;;;;10.33;5.63;;;2.20;99.90;;;;;;5075308;28;20732;-53
2022/02/13 08:13:48;;;;;;;6.70;5.67;;;2.30;99.90;;;;;;5076537;28;20457;-57
2022/02/13 08:16:15;;;;;;;7.30;6.23;;;2.50;99.90;;;;;;5076238;28;20488;-52
2022/02/13 08:18:43;;;;;;;7.00;6.00;;;2.60;99.90;;;;;;5076884;28;20468;-55
2022/02/13 08:21:16;;;;;;;7.23;5.60;;;2.80;99.90;;;;;;5075884;28;20515;-55
2022/02/13 08:23:43;;;;;;;7.37;5.83;;;3.00;99.90;;;;;;5076539;28;20870;-55
2022/02/13 08:26:20;;;;;;;20.30;12.63;;;3.10;99.90;;;;;;5075277;28;20457;-57
2022/02/13 08:28:52;;;;;;;12.63;7.87;;;3.10;99.90;;;;;;5076569;28;20464;-55
2022/02/13 08:31:20;;;;;;;14.30;8.20;;;3.10;99.90;;;;;;5076606;28;20454;-58
2022/02/13 08:33:49;;;;;;;10.80;7.27;;;3.20;99.90;;;;;;5075839;28;20518;-58
2022/02/13 08:36:25;;;;;;;6.67;5.40;;;3.40;99.90;;;;;;5076436;28;20596;-56
2022/02/13 08:38:54;;;;;;;7.80;5.80;;;3.60;99.90;;;;;;5077007;28;20590;-57
2022/02/13 08:41:24;;;;;;;7.93;5.50;;;3.60;99.90;;;;;;5075978;28;20799;-57
2022/02/13 08:43:51;;;;;;;7.43;5.10;;;3.70;99.90;;;;;;5076637;28;20515;-57
2022/02/13 08:46:18;;;;;;;7.97;5.73;;;3.80;99.90;;;;;;5076521;28;20763;-59
2022/02/13 08:48:45;;;;;;;8.73;5.60;;;4.00;99.90;;;;;;5076699;28;20436;-58
2022/02/13 08:51:12;;;;;;;6.43;5.30;;;4.10;99.90;;;;;;5076950;28;20812;-58
2022/02/13 08:53:43;;;;;;;5.07;4.57;;;4.10;99.90;;;;;;5075907;28;20890;-54
2022/02/13 08:56:10;;;;;;;6.77;6.07;;;4.00;99.90;;;;;;5075936;28;20497;-55
2022/02/13 08:58:38;;;;;;;10.43;6.90;;;4.00;99.90;;;;;;5076398;28;20512;-51
2022/02/13 09:01:06;;;;;;;6.63;5.93;;;4.20;99.90;;;;;;5076753;28;20483;-57
2022/02/13 09:03:35;;;;;;;6.77;6.07;;;4.20;99.90;;;;;;5075365;28;20462;-57
2022/02/13 09:06:03;;;;;;;8.13;5.10;;;4.20;99.90;;;;;;5075954;28;20457;-59
2022/02/13 09:08:36;;;;;;;6.73;5.77;;;4.30;99.90;;;;;;5075914;28;20539;-59
2022/02/13 09:11:08;;;;;;;7.07;5.10;;;4.20;99.90;;;;;;5076411;28;20453;-58
2022/02/13 09:13:38;;;;;;;7.70;5.67;;;4.30;99.90;;;;;;5075778;28;20457;-59
2022/02/13 09:16:06;;;;;;;6.17;5.57;;;4.40;99.90;;;;;;5075703;28;20856;-59
2022/02/13 09:18:36;;;;;;;6.27;5.40;;;4.50;99.90;;;;;;5076016;28;20454;-50
2022/02/13 09:21:04;;;;;;;7.10;5.33;;;4.60;99.90;;;;;;5076794;28;20464;-51
2022/02/13 09:23:36;;;;;;;8.53;6.40;;;5.00;99.90;;;;;;5074816;28;20436;-54
2022/02/13 09:26:12;;;;;;;6.97;5.80;;;5.40;99.90;;;;;;5070253;28;20825;-51
2022/02/13 09:28:39;;;;;;;6.10;4.80;;;5.70;99.90;;;;;;5071947;28;20472;-53
2022/02/13 09:31:08;;;;;;;5.50;5.00;;;5.70;99.90;;;;;;5073814;28;20458;-57
2022/02/13 09:33:35;;;;;;;6.20;5.60;;;5.70;99.90;;;;;;5074884;28;20775;-55
2022/02/13 09:36:02;;;;;;;8.80;5.83;;;6.00;99.90;;;;;;5077862;28;20512;-56
2022/02/13 09:38:33;;;;;;;7.27;6.37;;;6.30;99.90;;;;;;5075076;28;20469;-57
2022/02/13 09:41:01;;;;;;;8.27;5.70;;;6.50;99.90;;;;;;5077676;28;20465;-53
2022/02/13 09:43:32;;;;;;;7.93;7.17;;;6.60;99.90;;;;;;5077717;28;20496;-57
2022/02/13 09:45:59;;;;;;;6.30;5.63;;;6.60;99.90;;;;;;5077264;28;20461;-57
2022/02/13 09:48:27;;;;;;;8.63;7.73;;;6.30;99.90;;;;;;5077798;28;20461;-57
2022/02/13 09:50:58;;;;;;;10.60;6.60;;;6.10;99.90;;;;;;5077541;28;20906;-56
2022/02/13 09:53:34;;;;;;;8.30;5.50;;;6.30;99.90;;;;;;5077774;28;20925;-55
2022/02/13 09:56:04;;;;;;;7.43;6.60;;;6.60;99.90;;;;;;5077479;28;20990;-59
2022/02/13 09:58:38;;;;;;;9.37;6.10;;;6.60;99.90;;;;;;5075152;28;20488;-57
2022/02/13 10:01:11;;;;;;;6.77;5.80;;;6.80;99.90;;;;;;5075861;28;20968;-59
2022/02/13 10:03:46;;;;;;;7.33;4.80;;;7.00;99.90;;;;;;5077488;28;20454;-59
2022/02/13 10:06:26;;;;;;;8.03;5.20;;;7.00;99.90;;;;;;5075007;28;20793;-57
2022/02/13 10:08:58;;;;;;;7.10;5.80;;;7.00;99.90;;;;;;5075725;28;20737;-55
2022/02/13 10:11:29;;;;;;;6.13;4.87;;;7.40;99.90;;;;;;5077433;28;20475;-55
2022/02/13 10:14:00;;;;;;;7.70;5.37;;;7.40;99.90;;;;;;5077363;28;20716;-58
2022/02/13 10:16:33;;;;;;;7.37;5.57;;;7.50;99.90;;;;;;5077118;28;20488;-59
2022/02/13 10:19:03;;;;;;;7.80;5.47;;;7.60;99.90;;;;;;5077866;28;20454;-58
2022/02/13 10:21:44;;;;;;;5.37;4.87;;;7.60;99.90;;;;;;5074965;28;20458;-58
2022/02/13 10:24:25;;;;;;;5.40;4.90;;;7.70;99.90;;;;;;5077680;28;20455;-58
2022/02/13 10:27:08;;;;;;;8.10;4.80;;;7.60;99.90;;;;;;5074186;28;20489;-59
2022/02/13 10:29:41;;;;;;;6.57;5.20;;;7.50;99.90;;;;;;5077404;28;20453;-58
2022/02/13 10:32:20;;;;;;;5.80;4.57;;;7.50;99.90;;;;;;5077150;28;20461;-57
2022/02/13 10:35:04;;;;;;;5.80;4.93;;;7.50;99.90;;;;;;5073433;28;20480;-57
2022/02/13 10:37:42;;;;;;;6.20;5.23;;;7.60;99.90;;;;;;5073935;28;20497;-58
2022/02/13 10:40:14;;;;;;;6.97;5.87;;;7.80;99.90;;;;;;5074694;28;20453;-59
2022/02/13 10:42:42;;;;;;;9.00;7.30;;;7.90;99.90;;;;;;5076857;28;20465;-59
2022/02/13 10:45:26;;;;;;;8.17;6.67;;;7.70;99.90;;;;;;5073763;28;20457;-54
2022/02/13 10:47:56;;;;;;;11.30;7.77;;;7.90;99.90;;;;;;5067025;28;20468;-59
2022/02/13 10:50:27;;;;;;;12.13;8.53;;;8.00;99.90;;;;;;5077988;28;20470;-58
2022/02/13 10:52:59;;;;;;;13.50;9.60;;;8.00;99.90;;;;;;5077761;28;20461;-59
2022/02/13 10:55:26;;;;;;;13.20;8.93;;;8.30;99.90;;;;;;5078303;28;20864;-58
2022/02/13 10:57:57;;;;;;;11.37;7.70;;;8.70;99.90;;;;;;5077094;28;20922;-58
2022/02/13 11:00:30;;;;;;;16.17;11.00;;;8.90;99.90;;;;;;5078226;28;20559;-60
2022/02/13 11:03:02;;;;;;;15.90;11.77;;;8.80;99.90;;;;;;5076938;28;20489;-53
2022/02/13 11:05:30;;;;;;;8.83;6.20;;;8.60;99.90;;;;;;5074731;28;20963;-57
2022/02/13 11:08:08;;;;;;;8.50;6.20;;;8.60;99.90;;;;;;5075902;28;20822;-56
2022/02/13 11:10:41;;;;;;;9.67;7.60;;;8.80;99.90;;;;;;5074782;28;20464;-58
2022/02/13 11:13:12;;;;;;;12.77;8.40;;;8.90;99.90;;;;;;5076519;28;20457;-56
2022/02/13 11:15:42;;;;;;;12.93;9.10;;;8.90;99.90;;;;;;5076656;28;20450;-54
2022/02/13 11:18:16;;;;;;;12.50;9.53;;;9.10;99.90;;;;;;5073593;28;20457;-53
2022/02/13 11:20:46;;;;;;;6.87;5.80;;;9.10;99.90;;;;;;5075567;28;20465;-53
2022/02/13 11:23:24;;;;;;;7.70;5.63;;;9.20;99.90;;;;;;5074017;28;20522;-57
2022/02/13 11:25:55;;;;;;;10.70;8.60;;;9.50;99.90;;;;;;5074063;28;20449;-53
2022/02/13 11:28:27;;;;;;;7.30;6.60;;;9.20;99.90;;;;;;5076625;28;20772;-56
2022/02/13 11:30:59;;;;;;;10.73;8.30;;;8.90;99.90;;;;;;5075100;28;20458;-58
2022/02/13 11:33:43;;;;;;;11.00;7.30;;;9.00;99.90;;;;;;5076410;28;20464;-56
2022/02/13 11:36:15;;;;;;;6.77;6.00;;;9.00;99.90;;;;;;5074170;28;20484;-54
2022/02/13 11:39:00;;;;;;;7.20;5.70;;;9.10;99.90;;;;;;5075204;28;20460;-56
2022/02/13 11:42:02;;;;;;;8.23;5.80;;;9.20;99.90;;;;;;5073760;28;20917;-57
2022/02/13 11:44:46;;;;;;;5.93;5.33;;;9.20;99.90;;;;;;5057870;28;20782;-58
2022/02/13 11:47:20;;;;;;;5.83;5.20;;;9.60;99.90;;;;;;5073999;28;20811;-57
2022/02/13 11:50:24;;;;;;;5.87;5.07;;;9.90;99.90;;;;;;5075291;28;20515;-52
2022/02/13 11:53:07;;;;;;;7.30;6.20;;;10.00;99.90;;;;;;5073401;28;20493;-56
2022/02/13 11:55:41;;;;;;;5.93;5.33;;;10.00;99.90;;;;;;5073058;28;20478;-53
2022/02/13 11:58:12;;;;;;;6.50;4.80;;;10.00;99.90;;;;;;5074680;28;20796;-56
2022/02/13 12:00:46;;;;;;;5.43;4.83;;;9.90;99.90;;;;;;5076027;28;20515;-58
2022/02/13 12:03:34;;;;;;;8.60;5.03;;;9.80;99.90;;;;;;5075834;28;20560;-57
2022/02/13 12:06:30;;;;;;;7.77;5.67;;;9.70;99.90;;;;;;5074715;28;20446;-59
2022/02/13 12:09:04;;;;;;;5.93;4.70;;;9.90;99.90;;;;;;5074235;28;20552;-57
2022/02/13 12:11:37;;;;;;;7.57;5.17;;;10.00;99.90;;;;;;5073823;28;20766;-54
2022/02/13 12:14:17;;;;;;;7.20;4.70;;;10.00;99.90;;;;;;5075338;28;20465;-56
2022/02/13 12:17:01;;;;;;;5.27;4.77;;;10.00;99.90;;;;;;5075517;28;20507;-56
2022/02/13 12:19:41;;;;;;;6.57;4.90;;;9.80;99.90;;;;;;5069943;28;20476;-55
2022/02/13 12:22:13;;;;;;;5.50;4.90;;;9.60;99.90;;;;;;5071717;28;20560;-58
2022/02/13 12:24:41;;;;;;;5.90;4.90;;;9.50;99.90;;;;;;5074634;28;20543;-57
2022/02/13 12:27:09;;;;;;;6.33;5.17;;;9.60;99.90;;;;;;5075210;28;20450;-58
2022/02/13 12:30:06;;;;;;;6.53;4.70;;;9.90;99.90;;;;;;5075400;28;20733;-57
2022/02/13 12:32:35;;;;;;;4.73;4.23;;;10.20;99.90;;;;;;5071746;28;20480;-57
2022/02/13 12:35:09;;;;;;;4.53;4.10;;;10.60;99.90;;;;;;5074578;28;20453;-56
2022/02/13 12:37:39;;;;;;;6.10;5.47;;;10.80;99.90;;;;;;5073872;28;20550;-58
2022/02/13 12:40:18;;;;;;;7.23;5.20;;;10.90;99.90;;;;;;5072824;28;20457;-55
2022/02/13 12:42:47;;;;;;;5.70;4.83;;;10.90;99.90;;;;;;5074560;28;20915;-57
2022/02/13 12:45:16;;;;;;;6.33;5.07;;;10.80;99.90;;;;;;5074758;28;20465;-57
2022/02/13 12:47:46;;;;;;;7.50;4.47;;;10.70;99.90;;;;;;5074353;28;20811;-58
2022/02/13 12:50:20;;;;;;;5.80;4.73;;;10.30;99.90;;;;;;5075833;28;20472;-53
2022/02/13 12:52:51;;;;;;;6.40;4.17;;;10.20;99.90;;;;;;5075909;28;20436;-57
2022/02/13 12:55:34;;;;;;;6.23;4.50;;;10.10;99.90;;;;;;5075507;28;20464;-57
2022/02/13 12:58:02;;;;;;;6.10;4.73;;;10.20;99.90;;;;;;5074306;28;20531;-54
2022/02/13 13:00:31;;;;;;;7.03;5.70;;;10.20;99.90;;;;;;5076572;28;20887;-57
2022/02/13 13:03:08;;;;;;;4.90;4.50;;;10.40;99.90;;;;;;5075257;28;20511;-56
2022/02/13 13:05:42;;;;;;;5.43;4.80;;;10.30;99.90;;;;;;5075353;28;20522;-55
2022/02/13 13:08:14;;;;;;;5.00;4.50;;;10.50;99.90;;;;;;5075472;28;20607;-57